SCC50AB EGPH-EGNX
Flight info
| Callsign | SCC50AB |
|---|---|
| Flight time | 0h 41m |
| Altitude | 33000 |
| Route | GOSAM P600 FENIK L612 CROFT DCT MCT DCT VEGAR DCT TNT DCT DIPSO DCT ROKUP |
| Aircraft | B738/M-SDE2E3FGHIRWXY/LB1 |
Departure
| Time | 2026-05-05 22:16 |
|---|---|
| Airport | Edinburgh Airport (EGPH) |
Arrival
| Time | 2026-05-05 22:58 |
|---|---|
| Airport | East Midlands Airport (EGNX) |
| Time | Latitude | Longitude | Altitude | Speed | Heading |
|---|---|---|---|---|---|
| 2026-05-05 21:57 | 55.94781 | -3.36884 | 115 ft | 0 kts | 269° |
| 2026-05-05 22:10 | 55.94781 | -3.36883 | 115 ft | 1 kts | 269° |
| 2026-05-05 22:10 | 55.94781 | -3.36855 | 111 ft | 2 kts | 269° |
| 2026-05-05 22:10 | 55.94782 | -3.36825 | 114 ft | 2 kts | 276° |
| 2026-05-05 22:11 | 55.94777 | -3.36797 | 112 ft | 2 kts | 321° |
| 2026-05-05 22:11 | 55.94768 | -3.36789 | 112 ft | 1 kts | 2° |
| 2026-05-05 22:11 | 55.94765 | -3.36789 | 111 ft | 0 kts | 5° |
| 2026-05-05 22:12 | 55.94791 | -3.36785 | 113 ft | 8 kts | 5° |
| 2026-05-05 22:12 | 55.94853 | -3.36779 | 115 ft | 9 kts | 1° |
| 2026-05-05 22:12 | 55.94922 | -3.36843 | 115 ft | 14 kts | 301° |
| 2026-05-05 22:13 | 55.94881 | -3.37030 | 115 ft | 24 kts | 238° |
| 2026-05-05 22:13 | 55.94787 | -3.37303 | 112 ft | 25 kts | 238° |
| 2026-05-05 22:13 | 55.94699 | -3.37562 | 113 ft | 24 kts | 239° |
| 2026-05-05 22:13 | 55.94616 | -3.37806 | 114 ft | 23 kts | 239° |
| 2026-05-05 22:14 | 55.94533 | -3.38051 | 115 ft | 25 kts | 239° |
| 2026-05-05 22:14 | 55.94441 | -3.38320 | 114 ft | 25 kts | 238° |
| 2026-05-05 22:14 | 55.94354 | -3.38577 | 112 ft | 23 kts | 239° |
| 2026-05-05 22:14 | 55.94279 | -3.38809 | 114 ft | 17 kts | 257° |
| 2026-05-05 22:15 | 55.94355 | -3.38943 | 112 ft | 16 kts | 328° |
| 2026-05-05 22:15 | 55.94441 | -3.38899 | 113 ft | 15 kts | 56° |
| 2026-05-05 22:15 | 55.94497 | -3.38735 | 110 ft | 19 kts | 58° |
| 2026-05-05 22:15 | 55.94655 | -3.38266 | 113 ft | 80 kts | 59° |
| 2026-05-05 22:16 | 55.95064 | -3.37059 | 113 ft | 144 kts | 59° |
| 2026-05-05 22:16 | 55.95634 | -3.35400 | 586 ft | 162 kts | 59° |
| 2026-05-05 22:16 | 55.96265 | -3.33753 | 1531 ft | 156 kts | 44° |
| 2026-05-05 22:16 | 55.97089 | -3.32502 | 2347 ft | 160 kts | 43° |
| 2026-05-05 22:17 | 55.98000 | -3.31056 | 2713 ft | 190 kts | 43° |
| 2026-05-05 22:17 | 55.99040 | -3.29394 | 2991 ft | 211 kts | 41° |
| 2026-05-05 22:17 | 56.00389 | -3.28191 | 3370 ft | 226 kts | 10° |
| 2026-05-05 22:17 | 56.01964 | -3.28529 | 3877 ft | 239 kts | 339° |
| 2026-05-05 22:18 | 56.03236 | -3.30578 | 4275 ft | 261 kts | 300° |
| 2026-05-05 22:18 | 56.03552 | -3.33769 | 5142 ft | 266 kts | 263° |
| 2026-05-05 22:18 | 56.03037 | -3.36924 | 6022 ft | 265 kts | 253° |
| 2026-05-05 22:18 | 56.02465 | -3.40014 | 6956 ft | 264 kts | 255° |
| 2026-05-05 22:19 | 56.01927 | -3.43162 | 7737 ft | 268 kts | 256° |
| 2026-05-05 22:19 | 56.01408 | -3.46378 | 8543 ft | 270 kts | 257° |
| 2026-05-05 22:19 | 56.00933 | -3.49634 | 9379 ft | 273 kts | 258° |
| 2026-05-05 22:19 | 56.00463 | -3.52935 | 10185 ft | 276 kts | 258° |
| 2026-05-05 22:20 | 55.99982 | -3.56333 | 10601 ft | 293 kts | 258° |
| 2026-05-05 22:20 | 55.99460 | -3.60019 | 10785 ft | 316 kts | 258° |
| 2026-05-05 22:20 | 55.98906 | -3.63901 | 11222 ft | 329 kts | 257° |
| 2026-05-05 22:20 | 55.98334 | -3.67880 | 11937 ft | 332 kts | 257° |
| 2026-05-05 22:21 | 55.97757 | -3.71885 | 12749 ft | 334 kts | 257° |
| 2026-05-05 22:21 | 55.97173 | -3.75931 | 13565 ft | 337 kts | 257° |
| 2026-05-05 22:21 | 55.96586 | -3.79993 | 14312 ft | 340 kts | 257° |
| 2026-05-05 22:21 | 55.95993 | -3.84096 | 15055 ft | 343 kts | 257° |
| 2026-05-05 22:22 | 55.95395 | -3.88222 | 15819 ft | 345 kts | 257° |
| 2026-05-05 22:22 | 55.94788 | -3.92391 | 16552 ft | 349 kts | 257° |
| 2026-05-05 22:22 | 55.94164 | -3.96610 | 17287 ft | 352 kts | 254° |
| 2026-05-05 22:22 | 55.92984 | -4.00457 | 17964 ft | 363 kts | 230° |
| 2026-05-05 22:23 | 55.90994 | -4.03277 | 18693 ft | 369 kts | 216° |
| 2026-05-05 22:23 | 55.88817 | -4.05746 | 19318 ft | 372 kts | 216° |
| 2026-05-05 22:23 | 55.86670 | -4.08362 | 19916 ft | 375 kts | 219° |
| 2026-05-05 22:23 | 55.84602 | -4.11217 | 20533 ft | 377 kts | 222° |
| 2026-05-05 22:24 | 55.82600 | -4.14247 | 21141 ft | 379 kts | 224° |
| 2026-05-05 22:24 | 55.80622 | -4.17352 | 21737 ft | 382 kts | 224° |
| 2026-05-05 22:24 | 55.78628 | -4.20497 | 22333 ft | 385 kts | 223° |
| 2026-05-05 22:24 | 55.76487 | -4.23407 | 22906 ft | 390 kts | 218° |
| 2026-05-05 22:25 | 55.74108 | -4.25788 | 23423 ft | 400 kts | 202° |
| 2026-05-05 22:25 | 55.71342 | -4.26606 | 23925 ft | 411 kts | 184° |
| 2026-05-05 22:25 | 55.68482 | -4.25981 | 24401 ft | 420 kts | 167° |
| 2026-05-05 22:25 | 55.65777 | -4.23888 | 24847 ft | 428 kts | 155° |
| 2026-05-05 22:26 | 55.63165 | -4.21304 | 25271 ft | 432 kts | 153° |
| 2026-05-05 22:26 | 55.60552 | -4.18630 | 25671 ft | 435 kts | 153° |
| 2026-05-05 22:26 | 55.57924 | -4.15961 | 26086 ft | 438 kts | 153° |
| 2026-05-05 22:26 | 55.55253 | -4.13303 | 26525 ft | 440 kts | 154° |
| 2026-05-05 22:27 | 55.52574 | -4.10681 | 26940 ft | 442 kts | 154° |
| 2026-05-05 22:27 | 55.49867 | -4.08053 | 27339 ft | 445 kts | 154° |
| 2026-05-05 22:27 | 55.47144 | -4.05413 | 27714 ft | 448 kts | 154° |
| 2026-05-05 22:27 | 55.44404 | -4.02754 | 28089 ft | 451 kts | 154° |
| 2026-05-05 22:28 | 55.41685 | -4.00115 | 28466 ft | 453 kts | 154° |
| 2026-05-05 22:28 | 55.38917 | -3.97431 | 28829 ft | 455 kts | 154° |
| 2026-05-05 22:28 | 55.36138 | -3.94740 | 29177 ft | 458 kts | 154° |
| 2026-05-05 22:28 | 55.33338 | -3.92033 | 29559 ft | 460 kts | 154° |
| 2026-05-05 22:29 | 55.30537 | -3.89328 | 30056 ft | 458 kts | 154° |
| 2026-05-05 22:29 | 55.27713 | -3.86604 | 30538 ft | 456 kts | 154° |
| 2026-05-05 22:29 | 55.24982 | -3.83976 | 30984 ft | 454 kts | 154° |
| 2026-05-05 22:29 | 55.22216 | -3.81320 | 31389 ft | 453 kts | 154° |
| 2026-05-05 22:30 | 55.19451 | -3.78670 | 31753 ft | 453 kts | 154° |
| 2026-05-05 22:30 | 55.16690 | -3.76027 | 32147 ft | 452 kts | 154° |
| 2026-05-05 22:30 | 55.13937 | -3.73395 | 32584 ft | 450 kts | 154° |
| 2026-05-05 22:30 | 55.11195 | -3.70776 | 32984 ft | 448 kts | 154° |
| 2026-05-05 22:31 | 55.08446 | -3.68155 | 33096 ft | 453 kts | 154° |
| 2026-05-05 22:31 | 55.02901 | -3.62878 | 33094 ft | 453 kts | 154° |
| 2026-05-05 22:32 | 54.97410 | -3.57670 | 33094 ft | 446 kts | 154° |
| 2026-05-05 22:32 | 54.91931 | -3.52522 | 33110 ft | 449 kts | 154° |
| 2026-05-05 22:33 | 54.86345 | -3.47295 | 33103 ft | 462 kts | 154° |
| 2026-05-05 22:33 | 54.80629 | -3.41954 | 33109 ft | 472 kts | 154° |
| 2026-05-05 22:34 | 54.74825 | -3.36541 | 33072 ft | 474 kts | 154° |
| 2026-05-05 22:34 | 54.68941 | -3.31438 | 33082 ft | 472 kts | 158° |
| 2026-05-05 22:35 | 54.62921 | -3.26975 | 33088 ft | 471 kts | 159° |
| 2026-05-05 22:35 | 54.56891 | -3.22570 | 33082 ft | 470 kts | 159° |
| 2026-05-05 22:36 | 54.50924 | -3.18144 | 33078 ft | 469 kts | 158° |
| 2026-05-05 22:36 | 54.44941 | -3.13681 | 33070 ft | 469 kts | 158° |
| 2026-05-05 22:37 | 54.38960 | -3.09232 | 33087 ft | 468 kts | 158° |
| 2026-05-05 22:37 | 54.32994 | -3.04812 | 33080 ft | 468 kts | 158° |
| 2026-05-05 22:38 | 54.27025 | -3.00403 | 33073 ft | 467 kts | 158° |
| 2026-05-05 22:38 | 54.21049 | -2.96009 | 33070 ft | 467 kts | 158° |
| 2026-05-05 22:39 | 54.15075 | -2.91646 | 33075 ft | 467 kts | 158° |
| 2026-05-05 22:39 | 54.09107 | -2.87298 | 33066 ft | 467 kts | 158° |
| 2026-05-05 22:40 | 54.03125 | -2.82949 | 33069 ft | 467 kts | 158° |
| 2026-05-05 22:40 | 53.97111 | -2.78605 | 32302 ft | 471 kts | 158° |
| 2026-05-05 22:40 | 53.94098 | -2.76445 | 31564 ft | 469 kts | 158° |
| 2026-05-05 22:41 | 53.91094 | -2.74297 | 30784 ft | 469 kts | 158° |
| 2026-05-05 22:41 | 53.88097 | -2.72140 | 30141 ft | 466 kts | 158° |
| 2026-05-05 22:41 | 53.85133 | -2.69991 | 29495 ft | 461 kts | 158° |
| 2026-05-05 22:41 | 53.82206 | -2.67869 | 28914 ft | 454 kts | 158° |
| 2026-05-05 22:42 | 53.79318 | -2.65782 | 28325 ft | 449 kts | 158° |
| 2026-05-05 22:42 | 53.76463 | -2.63726 | 27751 ft | 443 kts | 158° |
| 2026-05-05 22:42 | 53.73640 | -2.61704 | 27160 ft | 439 kts | 158° |
| 2026-05-05 22:42 | 53.70842 | -2.59706 | 26600 ft | 434 kts | 158° |
| 2026-05-05 22:43 | 53.68068 | -2.57726 | 26040 ft | 430 kts | 158° |
| 2026-05-05 22:43 | 53.65325 | -2.55771 | 25483 ft | 427 kts | 158° |
| 2026-05-05 22:43 | 53.62610 | -2.53793 | 24947 ft | 423 kts | 155° |
| 2026-05-05 22:43 | 53.60048 | -2.51398 | 24429 ft | 420 kts | 149° |
| 2026-05-05 22:44 | 53.57574 | -2.48821 | 23904 ft | 417 kts | 148° |
| 2026-05-05 22:44 | 53.55130 | -2.46226 | 23327 ft | 414 kts | 148° |
| 2026-05-05 22:44 | 53.52705 | -2.43664 | 22705 ft | 410 kts | 149° |
| 2026-05-05 22:44 | 53.50294 | -2.41146 | 22183 ft | 405 kts | 149° |
| 2026-05-05 22:45 | 53.47945 | -2.38718 | 21644 ft | 402 kts | 149° |
| 2026-05-05 22:45 | 53.45572 | -2.36281 | 21117 ft | 398 kts | 150° |
| 2026-05-05 22:45 | 53.43220 | -2.33874 | 20586 ft | 394 kts | 150° |
| 2026-05-05 22:45 | 53.40886 | -2.31489 | 20062 ft | 391 kts | 150° |
| 2026-05-05 22:46 | 53.38572 | -2.29128 | 19545 ft | 388 kts | 150° |
| 2026-05-05 22:46 | 53.36271 | -2.26783 | 19031 ft | 386 kts | 150° |
| 2026-05-05 22:46 | 53.33970 | -2.24495 | 18531 ft | 383 kts | 150° |
| 2026-05-05 22:46 | 53.31852 | -2.21838 | 18274 ft | 379 kts | 139° |
| 2026-05-05 22:47 | 53.29924 | -2.18773 | 18036 ft | 388 kts | 138° |
| 2026-05-05 22:47 | 53.27916 | -2.15843 | 17926 ft | 371 kts | 142° |
| 2026-05-05 22:47 | 53.26608 | -2.14094 | 17824 ft | 359 kts | 144° |
| 2026-05-05 22:47 | 53.24681 | -2.11606 | 17687 ft | 339 kts | 144° |
| 2026-05-05 22:48 | 53.22857 | -2.09275 | 17561 ft | 321 kts | 144° |
| 2026-05-05 22:48 | 53.20548 | -2.06311 | 17090 ft | 310 kts | 144° |
| 2026-05-05 22:48 | 53.19412 | -2.04846 | 16730 ft | 309 kts | 144° |
| 2026-05-05 22:48 | 53.17719 | -2.02655 | 16189 ft | 309 kts | 144° |
| 2026-05-05 22:49 | 53.16026 | -2.00456 | 15691 ft | 307 kts | 144° |
| 2026-05-05 22:49 | 53.14353 | -1.98277 | 15216 ft | 304 kts | 144° |
| 2026-05-05 22:49 | 53.12692 | -1.96113 | 14743 ft | 302 kts | 144° |
| 2026-05-05 22:49 | 53.11047 | -1.93968 | 14275 ft | 300 kts | 144° |
| 2026-05-05 22:50 | 53.09406 | -1.91830 | 13798 ft | 299 kts | 144° |
| 2026-05-05 22:50 | 53.07775 | -1.89706 | 13295 ft | 297 kts | 144° |
| 2026-05-05 22:50 | 53.06156 | -1.87600 | 12812 ft | 294 kts | 143° |
| 2026-05-05 22:50 | 53.04551 | -1.85513 | 12329 ft | 292 kts | 143° |
| 2026-05-05 22:51 | 53.02956 | -1.83441 | 11843 ft | 290 kts | 143° |
| 2026-05-05 22:51 | 53.01372 | -1.81385 | 11382 ft | 288 kts | 143° |
| 2026-05-05 22:51 | 52.99803 | -1.79351 | 10933 ft | 285 kts | 143° |
| 2026-05-05 22:51 | 52.98286 | -1.77384 | 10852 ft | 266 kts | 143° |
| 2026-05-05 22:52 | 52.96878 | -1.75559 | 10717 ft | 248 kts | 143° |
| 2026-05-05 22:52 | 52.95559 | -1.73853 | 10380 ft | 235 kts | 143° |
| 2026-05-05 22:52 | 52.94278 | -1.72197 | 9759 ft | 234 kts | 143° |
| 2026-05-05 22:52 | 52.92994 | -1.70541 | 9090 ft | 233 kts | 143° |
| 2026-05-05 22:53 | 52.91724 | -1.68901 | 8482 ft | 230 kts | 142° |
| 2026-05-05 22:53 | 52.90468 | -1.67283 | 7886 ft | 227 kts | 142° |
| 2026-05-05 22:53 | 52.89222 | -1.65677 | 7304 ft | 225 kts | 142° |
| 2026-05-05 22:53 | 52.87997 | -1.64099 | 6727 ft | 223 kts | 142° |
| 2026-05-05 22:54 | 52.86774 | -1.62526 | 6150 ft | 221 kts | 142° |
| 2026-05-05 22:54 | 52.85568 | -1.60976 | 5557 ft | 219 kts | 141° |
| 2026-05-05 22:54 | 52.84371 | -1.59439 | 4984 ft | 217 kts | 141° |
| 2026-05-05 22:54 | 52.83212 | -1.57921 | 4400 ft | 214 kts | 135° |
| 2026-05-05 22:55 | 52.82541 | -1.55806 | 3751 ft | 210 kts | 92° |
| 2026-05-05 22:55 | 52.82729 | -1.53445 | 3190 ft | 205 kts | 79° |
| 2026-05-05 22:55 | 52.82815 | -1.51092 | 2589 ft | 205 kts | 87° |
| 2026-05-05 22:55 | 52.82834 | -1.48749 | 2101 ft | 201 kts | 87° |
| 2026-05-05 22:56 | 52.82867 | -1.46496 | 1824 ft | 196 kts | 86° |
| 2026-05-05 22:56 | 52.82903 | -1.44313 | 1567 ft | 184 kts | 86° |
| 2026-05-05 22:56 | 52.82937 | -1.42299 | 1315 ft | 168 kts | 87° |
| 2026-05-05 22:56 | 52.82967 | -1.40478 | 1073 ft | 150 kts | 86° |
| 2026-05-05 22:57 | 52.82995 | -1.38834 | 862 ft | 139 kts | 86° |
| 2026-05-05 22:57 | 52.83015 | -1.37259 | 676 ft | 139 kts | 86° |
| 2026-05-05 22:57 | 52.83044 | -1.35663 | 458 ft | 135 kts | 85° |
| 2026-05-05 22:57 | 52.83076 | -1.34165 | 311 ft | 124 kts | 88° |
| 2026-05-05 22:58 | 52.83097 | -1.33088 | 305 ft | 62 kts | 88° |
| 2026-05-05 22:58 | 52.83095 | -1.32652 | 301 ft | 20 kts | 123° |
| 2026-05-05 22:58 | 52.83010 | -1.32695 | 301 ft | 14 kts | 222° |
| 2026-05-05 22:58 | 52.82935 | -1.32818 | 302 ft | 16 kts | 238° |
| 2026-05-05 22:59 | 52.82850 | -1.32859 | 302 ft | 13 kts | 179° |
| 2026-05-05 22:59 | 52.82783 | -1.32873 | 303 ft | 8 kts | 187° |
| 2026-05-05 22:59 | 52.82728 | -1.32872 | 305 ft | 0 kts | 179° |